createdAt,value
2023-01-17T00:01:34.229Z,69.70
2023-01-17T00:04:20.502Z,69.50
2023-01-17T00:07:05.944Z,69.50
2023-01-17T00:09:51.531Z,69.50
2023-01-17T00:12:18.764Z,69.90
2023-01-17T00:14:45.699Z,69.50
2023-01-17T00:17:12.982Z,69.50
2023-01-17T00:19:59.034Z,70.60
2023-01-17T00:22:46.944Z,70.10
2023-01-17T00:26:00.142Z,69.90
2023-01-17T00:28:27.470Z,69.20
2023-01-17T00:30:54.299Z,71.80
2023-01-17T00:33:22.922Z,69.10
2023-01-17T00:35:50.750Z,69.10
2023-01-17T00:38:22.664Z,69.00
2023-01-17T00:40:50.437Z,68.70
2023-01-17T00:43:41.191Z,70.20
2023-01-17T00:46:26.984Z,68.20
2023-01-17T00:49:12.201Z,71.30
2023-01-17T00:51:57.811Z,69.20
2023-01-17T00:54:43.430Z,68.40
2023-01-17T00:57:28.791Z,68.40
2023-01-17T01:00:14.313Z,68.30
2023-01-17T01:02:59.710Z,68.00
2023-01-17T01:05:45.054Z,67.70
2023-01-17T01:08:46.862Z,67.50
2023-01-17T01:11:36.262Z,66.70
2023-01-17T01:14:22.850Z,66.90
2023-01-17T01:17:08.548Z,66.80
2023-01-17T01:19:54.700Z,66.70
2023-01-17T01:22:40.392Z,66.50
2023-01-17T01:25:26.662Z,66.60
2023-01-17T01:28:12.144Z,66.70
2023-01-17T01:30:57.633Z,66.60
2023-01-17T01:33:24.680Z,66.60
2023-01-17T01:35:54.116Z,66.70
2023-01-17T01:38:25.615Z,68.20
2023-01-17T01:40:55.091Z,66.20
2023-01-17T01:43:47.087Z,66.20
2023-01-17T01:46:38.315Z,65.70
2023-01-17T01:49:08.631Z,65.50
2023-01-17T01:51:41.505Z,66.30
2023-01-17T01:54:15.007Z,68.00
2023-01-17T01:56:42.708Z,66.40
2023-01-17T01:59:13.726Z,66.30
2023-01-17T02:01:40.768Z,66.50
2023-01-17T02:04:12.042Z,66.40
2023-01-17T02:06:43.515Z,66.30
2023-01-17T02:09:12.707Z,66.30
2023-01-17T02:11:41.600Z,68.30
2023-01-17T02:14:08.807Z,66.30
2023-01-17T02:17:13.051Z,66.40
2023-01-17T02:20:17.398Z,66.00
2023-01-17T02:23:22.462Z,66.00
2023-01-17T02:26:23.445Z,65.70
2023-01-17T02:29:24.182Z,65.60
2023-01-17T02:31:57.175Z,65.80
2023-01-17T02:34:49.248Z,66.30
2023-01-17T02:37:27.298Z,65.90
2023-01-17T02:40:10.199Z,66.30
2023-01-17T02:42:42.960Z,66.00
2023-01-17T02:45:16.368Z,66.30
2023-01-17T02:47:43.340Z,66.30
2023-01-17T02:50:15.007Z,66.50
2023-01-17T02:52:59.871Z,65.80
2023-01-17T02:55:45.566Z,66.10
2023-01-17T02:58:18.488Z,66.20
2023-01-17T03:01:20.021Z,66.40
2023-01-17T03:04:05.251Z,66.30
2023-01-17T03:06:51.292Z,66.30
2023-01-17T03:09:19.615Z,66.20
2023-01-17T03:11:47.038Z,66.40
2023-01-17T03:14:14.123Z,66.40
2023-01-17T03:16:41.741Z,66.40
2023-01-17T03:19:09.880Z,66.60
2023-01-17T03:21:36.781Z,66.60
2023-01-17T03:24:03.821Z,66.60
2023-01-17T03:26:31.803Z,66.30
2023-01-17T03:28:58.792Z,66.30
2023-01-17T03:31:25.892Z,66.30
2023-01-17T03:33:52.818Z,66.30
2023-01-17T03:36:20.299Z,66.20
2023-01-17T03:38:47.160Z,66.20
2023-01-17T03:41:14.039Z,66.10
2023-01-17T03:43:40.878Z,66.20
2023-01-17T03:46:21.749Z,66.20
2023-01-17T03:48:49.168Z,65.80
2023-01-17T03:51:16.233Z,67.10
2023-01-17T03:53:43.419Z,65.90
2023-01-17T03:56:10.247Z,65.90
2023-01-17T03:58:37.097Z,66.10
2023-01-17T04:01:04.212Z,66.10
2023-01-17T04:03:31.380Z,66.20
2023-01-17T04:05:58.273Z,66.10
2023-01-17T04:08:25.133Z,66.20
2023-01-17T04:10:52.003Z,66.20
2023-01-17T04:13:18.887Z,66.10
2023-01-17T04:15:48.460Z,66.20
2023-01-17T04:18:17.611Z,66.20
2023-01-17T04:20:44.607Z,66.30
2023-01-17T04:23:11.546Z,66.40
2023-01-17T04:25:38.401Z,66.50
2023-01-17T04:28:05.439Z,66.60
2023-01-17T04:30:33.007Z,66.80
2023-01-17T04:33:00.532Z,66.80
2023-01-17T04:35:31.092Z,67.90
2023-01-17T04:37:58.325Z,67.10
2023-01-17T04:40:25.341Z,67.20
2023-01-17T04:42:52.539Z,67.20
2023-01-17T04:45:19.385Z,68.10
2023-01-17T04:47:46.188Z,67.40
2023-01-17T04:50:13.076Z,67.50
2023-01-17T04:52:39.968Z,67.60
2023-01-17T04:55:07.397Z,67.50
2023-01-17T04:57:34.274Z,67.50
2023-01-17T05:00:01.109Z,67.50
2023-01-17T05:02:27.960Z,67.50
2023-01-17T05:04:54.807Z,67.60
2023-01-17T05:07:21.655Z,67.60
2023-01-17T05:09:48.442Z,67.60
2023-01-17T05:12:15.257Z,67.60
2023-01-17T05:14:42.221Z,66.50
2023-01-17T05:17:11.251Z,67.50
2023-01-17T05:19:38.206Z,67.60
2023-01-17T05:22:15.257Z,67.70
2023-01-17T05:24:43.834Z,67.60
2023-01-17T05:27:11.744Z,69.90
2023-01-17T05:29:39.074Z,69.10
2023-01-17T05:32:06.636Z,67.90
2023-01-17T05:34:34.259Z,67.80
2023-01-17T05:37:01.122Z,67.70
2023-01-17T05:39:28.046Z,67.90
2023-01-17T05:41:54.852Z,67.00
2023-01-17T05:44:22.039Z,67.90
2023-01-17T05:46:48.895Z,68.00
2023-01-17T05:49:15.870Z,68.00
2023-01-17T05:51:42.711Z,68.20
2023-01-17T05:54:09.598Z,68.20
2023-01-17T05:56:36.443Z,68.40
2023-01-17T05:59:03.311Z,68.30
2023-01-17T06:01:30.168Z,68.30
2023-01-17T06:03:56.993Z,68.30
2023-01-17T06:06:23.852Z,70.90
2023-01-17T06:08:50.678Z,68.40
2023-01-17T06:11:18.707Z,68.40
2023-01-17T06:13:45.649Z,68.50
2023-01-17T06:16:12.503Z,68.60
2023-01-17T06:18:39.359Z,68.50
2023-01-17T06:21:07.824Z,68.50
2023-01-17T06:23:34.799Z,68.50
2023-01-17T06:26:04.898Z,69.30
2023-01-17T06:28:31.785Z,68.60
2023-01-17T06:30:59.929Z,68.70
2023-01-17T06:33:27.140Z,70.80
2023-01-17T06:35:54.132Z,68.70
2023-01-17T06:38:21.430Z,68.60
2023-01-17T06:40:48.350Z,68.70
2023-01-17T06:43:15.531Z,68.50
2023-01-17T06:45:42.397Z,69.40
2023-01-17T06:48:09.275Z,68.70
2023-01-17T06:50:36.121Z,68.30
2023-01-17T06:53:05.122Z,68.20
2023-01-17T06:55:33.788Z,68.30
2023-01-17T06:58:02.776Z,68.30
2023-01-17T07:00:31.496Z,70.80
2023-01-17T07:02:58.585Z,68.30
2023-01-17T07:05:25.885Z,68.30
2023-01-17T07:07:54.284Z,68.40
2023-01-17T07:10:22.076Z,68.40
2023-01-17T07:12:48.904Z,68.60
2023-01-17T07:15:15.819Z,68.60
2023-01-17T07:17:42.601Z,68.60
2023-01-17T07:20:10.024Z,68.60
2023-01-17T07:22:37.790Z,68.60
2023-01-17T07:25:05.163Z,70.70
2023-01-17T07:27:33.610Z,68.80
2023-01-17T07:30:00.791Z,68.70
2023-01-17T07:32:28.313Z,68.60
2023-01-17T07:34:57.652Z,68.60
2023-01-17T07:37:26.348Z,68.60
2023-01-17T07:39:54.540Z,68.60
2023-01-17T07:42:23.961Z,68.60
2023-01-17T07:44:51.118Z,68.60
2023-01-17T07:47:18.003Z,68.90
2023-01-17T07:49:45.015Z,68.60
2023-01-17T07:52:11.895Z,68.60
2023-01-17T07:54:39.675Z,68.50
2023-01-17T07:57:11.619Z,68.40
2023-01-17T07:59:38.521Z,68.40
2023-01-17T08:02:05.401Z,68.50
2023-01-17T08:04:35.204Z,68.50
2023-01-17T08:07:02.336Z,68.20
2023-01-17T08:09:29.272Z,68.20
2023-01-17T08:11:56.152Z,68.80
2023-01-17T08:14:23.046Z,68.10
2023-01-17T08:16:49.899Z,68.10
2023-01-17T08:19:17.372Z,67.40
2023-01-17T08:21:44.709Z,67.80
2023-01-17T08:24:14.937Z,67.80
2023-01-17T08:26:41.792Z,69.60
2023-01-17T08:29:09.639Z,67.70
2023-01-17T08:31:36.905Z,67.70
2023-01-17T08:34:04.580Z,67.70
2023-01-17T08:36:31.559Z,67.80
2023-01-17T08:38:58.984Z,67.80
2023-01-17T08:41:27.837Z,67.90
2023-01-17T08:43:54.870Z,68.00
2023-01-17T08:46:22.519Z,68.90
2023-01-17T08:48:53.939Z,68.10
2023-01-17T08:51:20.800Z,70.60
2023-01-17T08:53:48.579Z,68.30
2023-01-17T08:56:15.637Z,69.60
2023-01-17T08:58:42.524Z,68.40
2023-01-17T09:01:09.530Z,68.40
2023-01-17T09:03:38.413Z,68.50
2023-01-17T09:06:12.871Z,68.50
2023-01-17T09:08:40.308Z,68.50
2023-01-17T09:11:09.960Z,68.60
2023-01-17T09:13:37.622Z,68.50
2023-01-17T09:16:05.892Z,68.60
2023-01-17T09:18:34.297Z,68.60
2023-01-17T09:21:18.989Z,68.70
2023-01-17T09:23:46.583Z,69.50
2023-01-17T09:26:19.429Z,69.00
2023-01-17T09:28:46.498Z,68.90
2023-01-17T09:31:14.705Z,68.90
2023-01-17T09:33:42.983Z,69.10
2023-01-17T09:36:11.338Z,68.90
2023-01-17T09:38:40.084Z,68.70
2023-01-17T09:41:27.773Z,70.40
2023-01-17T09:43:59.835Z,68.60
2023-01-17T09:46:32.173Z,68.70
2023-01-17T09:49:02.220Z,69.40
2023-01-17T09:51:29.125Z,68.50
2023-01-17T09:53:56.240Z,68.70
2023-01-17T09:56:30.496Z,68.80
2023-01-17T09:59:08.995Z,68.70
2023-01-17T10:02:05.005Z,68.50
2023-01-17T10:04:52.176Z,68.60
2023-01-17T10:07:31.006Z,67.90
2023-01-17T10:10:20.798Z,68.20
2023-01-17T10:12:52.797Z,68.00
2023-01-17T10:15:44.726Z,70.50
2023-01-17T10:18:33.430Z,67.80
2023-01-17T10:21:00.474Z,68.00
2023-01-17T10:23:54.560Z,68.00
2023-01-17T10:26:25.860Z,67.30
2023-01-17T10:28:56.577Z,67.70
2023-01-17T10:31:31.046Z,67.80
2023-01-17T10:34:03.776Z,67.50
2023-01-17T10:36:39.661Z,67.50
2023-01-17T10:39:23.887Z,67.40
2023-01-17T10:42:07.288Z,67.00
2023-01-17T10:44:53.179Z,67.20
2023-01-17T10:47:22.526Z,67.40
2023-01-17T10:49:55.142Z,67.40
2023-01-17T10:52:59.025Z,67.10
2023-01-17T10:55:53.366Z,65.90
2023-01-17T11:01:17.922Z,66.70
2023-01-17T11:03:50.889Z,66.30
2023-01-17T11:06:19.393Z,66.10
2023-01-17T11:09:00.027Z,66.20
2023-01-17T11:11:32.490Z,65.70
2023-01-17T11:14:07.670Z,66.20
2023-01-17T11:16:35.892Z,66.70
2023-01-17T11:19:17.262Z,66.10
2023-01-17T11:22:05.988Z,65.40
2023-01-17T11:24:41.602Z,64.90
2023-01-17T11:27:28.153Z,65.60
2023-01-17T11:30:29.337Z,65.10
2023-01-17T11:32:57.611Z,65.10
2023-01-17T11:35:27.461Z,66.00
2023-01-17T11:38:12.087Z,65.80
2023-01-17T11:40:47.851Z,65.50
2023-01-17T11:43:26.835Z,66.00
2023-01-17T11:46:05.549Z,67.80
2023-01-17T11:48:38.270Z,65.30
2023-01-17T11:51:19.559Z,65.70
2023-01-17T11:53:48.273Z,65.40
2023-01-17T11:56:36.667Z,65.90
2023-01-17T11:59:15.855Z,66.80
2023-01-17T12:01:55.824Z,65.80
2023-01-17T12:04:41.257Z,66.30
2023-01-17T12:07:20.531Z,65.70
2023-01-17T12:10:08.732Z,67.50
2023-01-17T12:13:35.277Z,65.90
2023-01-17T12:16:39.081Z,65.40
2023-01-17T12:19:18.528Z,65.50
2023-01-17T12:22:00.290Z,67.80
2023-01-17T12:24:54.794Z,67.60
2023-01-17T12:27:30.938Z,65.60
2023-01-17T12:30:20.875Z,68.00
2023-01-17T12:33:11.334Z,64.90
2023-01-17T12:35:59.358Z,63.90
2023-01-17T12:38:38.603Z,64.30
2023-01-17T12:41:18.573Z,63.40
2023-01-17T12:43:46.226Z,63.60
2023-01-17T12:46:23.950Z,63.30
2023-01-17T12:49:02.925Z,62.40
2023-01-17T12:51:43.174Z,62.10
2023-01-17T12:54:27.576Z,61.70
2023-01-17T12:57:01.164Z,61.90
2023-01-17T12:59:30.714Z,62.00
2023-01-17T13:02:01.378Z,64.20
2023-01-17T13:04:57.366Z,61.90
2023-01-17T13:07:37.172Z,61.30
2023-01-17T13:10:32.051Z,61.00
2023-01-17T13:13:04.929Z,59.60
2023-01-17T13:15:39.417Z,60.50
2023-01-17T13:18:22.738Z,61.90
2023-01-17T13:20:53.736Z,59.60
2023-01-17T13:23:33.922Z,60.10
2023-01-17T13:26:03.177Z,59.20
2023-01-17T13:28:57.920Z,60.00
2023-01-17T13:31:33.012Z,60.30
2023-01-17T13:34:14.981Z,59.30
2023-01-17T13:37:18.412Z,59.50
2023-01-17T13:40:12.875Z,58.20
2023-01-17T13:43:04.120Z,58.60
2023-01-17T13:45:36.652Z,57.60
2023-01-17T13:48:12.768Z,58.40
2023-01-17T13:50:53.036Z,57.80
2023-01-17T13:53:34.974Z,57.60
2023-01-17T13:56:18.851Z,59.30
2023-01-17T13:58:54.459Z,57.70
2023-01-17T14:01:24.429Z,58.60
2023-01-17T14:03:54.370Z,58.10
2023-01-17T14:06:36.077Z,58.30
2023-01-17T14:09:10.935Z,58.80
2023-01-17T14:12:08.974Z,57.90
2023-01-17T14:14:42.077Z,57.70
2023-01-17T14:17:23.146Z,57.50
2023-01-17T14:19:50.999Z,57.00
2023-01-17T14:22:20.620Z,57.70
2023-01-17T14:25:09.706Z,57.20
2023-01-17T14:27:42.544Z,56.70
2023-01-17T14:30:33.940Z,56.80
2023-01-17T14:33:01.106Z,56.00
2023-01-17T14:35:37.124Z,57.00
2023-01-17T14:38:10.491Z,56.50
2023-01-17T14:40:39.088Z,54.70
2023-01-17T14:43:09.699Z,57.00
2023-01-17T14:45:37.689Z,56.90
2023-01-17T14:48:21.531Z,56.70
2023-01-17T14:50:50.470Z,56.10
2023-01-17T14:53:20.978Z,58.20
2023-01-17T14:55:47.841Z,56.40
2023-01-17T14:58:22.503Z,56.50
2023-01-17T15:00:55.150Z,56.20
2023-01-17T15:03:22.670Z,56.40
2023-01-17T15:05:52.969Z,56.70
2023-01-17T15:08:28.832Z,56.40
2023-01-17T15:11:05.364Z,56.40
2023-01-17T15:13:49.432Z,56.50
2023-01-17T15:16:33.314Z,56.20
2023-01-17T15:19:01.128Z,56.50
2023-01-17T15:21:33.918Z,56.80
2023-01-17T15:24:03.795Z,56.50
2023-01-17T15:26:34.500Z,58.30
2023-01-17T15:29:11.408Z,56.60
2023-01-17T15:31:49.521Z,56.70
2023-01-17T15:34:43.629Z,56.80
2023-01-17T15:37:30.340Z,56.30
2023-01-17T15:40:06.093Z,56.50
2023-01-17T15:42:36.147Z,56.70
2023-01-17T15:45:06.807Z,57.00
2023-01-17T15:47:38.856Z,57.00
2023-01-17T15:50:24.839Z,57.00
2023-01-17T15:52:54.106Z,56.80
2023-01-17T15:55:29.619Z,57.20
2023-01-17T15:57:56.580Z,57.10
2023-01-17T16:00:32.742Z,57.40
2023-01-17T16:02:59.911Z,57.40
2023-01-17T16:05:27.847Z,59.20
2023-01-17T16:08:25.812Z,57.60
2023-01-17T16:11:02.173Z,57.20
2023-01-17T16:13:32.011Z,59.70
2023-01-17T16:16:21.937Z,57.80
2023-01-17T16:18:51.409Z,57.70
2023-01-17T16:21:29.965Z,58.10
2023-01-17T16:23:57.222Z,57.90
2023-01-17T16:26:24.702Z,58.20
2023-01-17T16:28:51.946Z,57.30
2023-01-17T16:31:19.087Z,58.30
2023-01-17T16:33:49.005Z,59.00
2023-01-17T16:36:16.841Z,58.20
2023-01-17T16:38:45.252Z,58.30
2023-01-17T16:41:12.348Z,58.40
2023-01-17T16:43:39.438Z,58.40
2023-01-17T16:46:06.704Z,58.30
2023-01-17T16:48:33.772Z,58.30
2023-01-17T16:51:06.438Z,58.30
2023-01-17T16:53:33.330Z,58.20
2023-01-17T16:56:08.785Z,58.40
2023-01-17T16:58:35.634Z,58.20
2023-01-17T17:01:02.637Z,58.50
2023-01-17T17:03:29.738Z,58.60
2023-01-17T17:06:00.965Z,59.50
2023-01-17T17:08:31.119Z,58.50
2023-01-17T17:11:15.698Z,57.60
2023-01-17T17:13:47.992Z,58.50
2023-01-17T17:16:21.209Z,58.80
2023-01-17T17:18:55.794Z,60.00
2023-01-17T17:21:22.683Z,58.80
2023-01-17T17:23:56.546Z,59.00
2023-01-17T17:26:24.784Z,58.90
2023-01-17T17:28:52.964Z,59.00
2023-01-17T17:31:20.821Z,59.00
2023-01-17T17:33:47.789Z,59.10
2023-01-17T17:36:15.125Z,59.20
2023-01-17T17:38:51.097Z,59.20
2023-01-17T17:41:20.142Z,61.00
2023-01-17T17:43:47.007Z,61.50
2023-01-17T17:46:14.138Z,59.40
2023-01-17T17:48:41.043Z,59.50
2023-01-17T17:51:07.864Z,59.50
2023-01-17T17:53:34.885Z,59.50
2023-01-17T17:56:06.466Z,59.60
2023-01-17T17:58:36.065Z,59.70
2023-01-17T18:01:04.859Z,59.80
2023-01-17T18:03:32.296Z,60.90
2023-01-17T18:06:13.075Z,59.90
2023-01-17T18:08:39.986Z,60.00
2023-01-17T18:11:11.247Z,60.00
2023-01-17T18:13:39.069Z,60.00
2023-01-17T18:16:08.867Z,62.00
2023-01-17T18:18:37.880Z,61.90
2023-01-17T18:21:25.788Z,60.10
2023-01-17T18:23:58.803Z,60.10
2023-01-17T18:26:50.096Z,60.20
2023-01-17T18:29:18.431Z,60.20
2023-01-17T18:31:46.747Z,60.30
2023-01-17T18:34:21.244Z,60.30
2023-01-17T18:36:48.223Z,61.50
2023-01-17T18:39:21.386Z,61.20
2023-01-17T18:41:49.423Z,60.30
2023-01-17T18:44:17.036Z,60.60
2023-01-17T18:46:44.241Z,61.00
2023-01-17T18:49:12.287Z,60.80
2023-01-17T18:51:39.451Z,62.90
2023-01-17T18:54:08.900Z,60.70
2023-01-17T18:56:36.295Z,60.70
2023-01-17T18:59:09.003Z,60.70
2023-01-17T19:01:36.708Z,60.60
2023-01-17T19:04:05.156Z,60.60
2023-01-17T19:06:34.651Z,61.50
2023-01-17T19:09:02.653Z,60.30
2023-01-17T19:11:29.591Z,60.90
2023-01-17T19:13:57.004Z,60.90
2023-01-17T19:16:30.007Z,60.80
2023-01-17T19:19:01.557Z,60.80
2023-01-17T19:21:29.118Z,60.90
2023-01-17T19:23:57.611Z,61.00
2023-01-17T19:26:27.142Z,61.00
2023-01-17T19:29:05.193Z,61.10
2023-01-17T19:31:36.607Z,61.20
2023-01-17T19:34:03.545Z,61.40
2023-01-17T19:36:37.469Z,61.40
2023-01-17T19:39:06.790Z,61.40
2023-01-17T19:41:36.047Z,61.50
2023-01-17T19:44:05.960Z,61.60
2023-01-17T19:46:33.368Z,61.60
2023-01-17T19:49:01.071Z,61.60
2023-01-17T19:51:28.804Z,61.60
2023-01-17T19:53:56.895Z,61.70
2023-01-17T19:56:25.918Z,61.70
2023-01-17T19:58:54.121Z,61.80
2023-01-17T20:01:25.429Z,62.00
2023-01-17T20:03:52.837Z,63.60
2023-01-17T20:06:22.665Z,61.80
2023-01-17T20:08:49.498Z,61.70
2023-01-17T20:11:19.713Z,61.70
2023-01-17T20:13:48.090Z,61.70
2023-01-17T20:16:16.304Z,61.70
2023-01-17T20:18:43.660Z,61.80
2023-01-17T20:21:19.120Z,61.70
2023-01-17T20:23:47.843Z,61.60
2023-01-17T20:26:20.824Z,61.80
2023-01-17T20:28:49.742Z,61.70
2023-01-17T20:31:20.547Z,61.70
2023-01-17T20:33:50.501Z,61.60
2023-01-17T20:36:19.805Z,61.60
2023-01-17T20:38:48.635Z,61.60
2023-01-17T20:41:18.285Z,61.60
2023-01-17T20:43:50.608Z,61.50
2023-01-17T20:46:20.353Z,61.60
2023-01-17T20:48:50.321Z,61.50
2023-01-17T20:51:18.545Z,61.40
2023-01-17T20:53:46.623Z,63.80
2023-01-17T20:56:15.451Z,62.10
2023-01-17T20:58:42.769Z,61.40
2023-01-17T21:01:12.494Z,63.20
2023-01-17T21:03:39.800Z,61.40
2023-01-17T21:06:13.744Z,62.80
2023-01-17T21:08:43.063Z,61.40
2023-01-17T21:11:12.406Z,61.30
2023-01-17T21:13:40.270Z,61.40
2023-01-17T21:16:09.339Z,61.40
2023-01-17T21:18:36.593Z,61.50
2023-01-17T21:21:05.742Z,61.50
2023-01-17T21:23:33.767Z,62.10
2023-01-17T21:26:00.650Z,61.50
2023-01-17T21:28:35.141Z,61.60
2023-01-17T21:31:19.501Z,61.50
2023-01-17T21:33:51.704Z,61.50
2023-01-17T21:36:20.893Z,61.50
2023-01-17T21:38:52.114Z,61.60
2023-01-17T21:41:20.683Z,61.70
2023-01-17T21:43:48.511Z,61.60
2023-01-17T21:46:15.510Z,61.70
2023-01-17T21:48:44.440Z,63.20
2023-01-17T21:51:11.336Z,61.90
2023-01-17T21:53:39.811Z,62.00
2023-01-17T21:56:29.209Z,62.00
2023-01-17T21:58:57.534Z,62.10
2023-01-17T22:01:27.573Z,62.00
2023-01-17T22:03:56.011Z,61.80
2023-01-17T22:06:25.586Z,62.00
2023-01-17T22:08:52.452Z,62.00
2023-01-17T22:11:23.004Z,62.00
2023-01-17T22:13:50.266Z,61.90
2023-01-17T22:16:19.571Z,62.00
2023-01-17T22:18:46.782Z,62.00
2023-01-17T22:21:20.461Z,62.00
2023-01-17T22:23:49.648Z,61.80
2023-01-17T22:26:16.616Z,60.10
2023-01-17T22:28:44.130Z,62.00
2023-01-17T22:31:20.860Z,61.90
2023-01-17T22:33:52.075Z,61.70
2023-01-17T22:36:20.180Z,61.80
2023-01-17T22:38:47.090Z,61.80
2023-01-17T22:41:16.429Z,61.80
2023-01-17T22:43:48.305Z,61.60
2023-01-17T22:46:18.810Z,61.60
2023-01-17T22:48:46.174Z,61.60
2023-01-17T22:51:15.323Z,61.80
2023-01-17T22:53:44.175Z,62.00
2023-01-17T22:56:13.579Z,62.00
2023-01-17T22:58:45.012Z,62.50
2023-01-17T23:01:14.354Z,60.50
2023-01-17T23:03:41.960Z,61.80
2023-01-17T23:06:16.333Z,61.80
2023-01-17T23:08:45.954Z,61.60
2023-01-17T23:11:40.866Z,61.80
2023-01-17T23:14:18.055Z,61.50
2023-01-17T23:17:07.818Z,61.70
2023-01-17T23:19:49.554Z,61.70
2023-01-17T23:22:30.182Z,61.60
2023-01-17T23:25:08.638Z,61.70
2023-01-17T23:27:57.208Z,61.60
2023-01-17T23:30:35.979Z,61.70
2023-01-17T23:33:05.496Z,62.40
2023-01-17T23:35:34.617Z,61.60
2023-01-17T23:38:20.242Z,61.60
2023-01-17T23:41:06.079Z,61.70
2023-01-17T23:43:33.414Z,61.70
2023-01-17T23:46:00.757Z,61.60
2023-01-17T23:48:27.833Z,61.70
2023-01-17T23:50:59.662Z,61.70
2023-01-17T23:53:27.391Z,61.50
2023-01-17T23:55:56.498Z,61.70
2023-01-17T23:58:25.458Z,61.60
